East Acres, Tennessee
Current Conditions -  °F | °C
As of 4:55 AM on Monday 20 Oct 2014 (Local Time) from KNQA Reporting Station
Clear Clear  
Wind Chill: 45°   Ceiling: Unl
Heat Index: 45°   Visibility: 10mi
Dew Point: 45°   Wind: 0mph
Humidity: 100%   Direction: NA
Pressure: 30.08"   Gusts: NA
Location:  35.3343°N, 89.9316°W
Report Text: KNQA 200955Z AUTO 00000KT 10SM CLR 07/07 A3008 RMK
Loading
Personal Weather Stations






























Interactive Weather Map
Tropical Storm Tracking
New forecast layout! Learn more

10-Day Weather Forecast

Advertisements
Track Severe Weather on mobile